Time;durP1;ratioP1;P1;durP2;ratioP2;P2;SDS_P1;SDS_P2;PMS_P1;PMS_P2;Temp;Humidity;BMP_temperature;BMP_pressure;BME280_temperature;BME280_humidity;BME280_pressure;Samples;Min_cycle;Max_cycle;Signal;HPM_P1;HPM_P2
2020/12/03 00:01:30;;;;;;;52.88;26.70;;;6.80;92.60;;;;;;5052342;28;20035;-77
2020/12/03 00:03:58;;;;;;;57.03;27.17;;;6.80;92.60;;;;;;5046448;28;20039;-77
2020/12/03 00:06:33;;;;;;;55.47;26.15;;;6.90;92.70;;;;;;5054335;28;20021;-77
2020/12/03 00:09:09;;;;;;;69.05;30.52;;;6.80;92.70;;;;;;5056130;28;20113;-77
2020/12/03 00:11:38;;;;;;;60.28;27.77;;;6.80;92.60;;;;;;5036947;28;20040;-77
2020/12/03 00:14:04;;;;;;;;;;;6.80;92.60;;;;;;5044426;28;20059;-77
2020/12/03 00:16:32;;;;;;;58.50;26.70;;;6.80;92.60;;;;;;5055603;28;19913;-77
2020/12/03 00:18:59;;;;;;;54.03;24.77;;;6.80;92.70;;;;;;5055828;28;20481;-77
2020/12/03 00:21:58;;;;;;;62.60;28.33;;;6.70;92.70;;;;;;5029230;28;20386;-77
2020/12/03 00:24:28;;;;;;;59.03;25.95;;;6.80;92.80;;;;;;5024289;28;20029;-78
2020/12/03 00:26:54;;;;;;;60.28;27.13;;;6.80;92.70;;;;;;5035670;28;20112;-77
2020/12/03 00:29:22;;;;;;;63.03;28.83;;;6.80;92.70;;;;;;5053556;28;20059;-77
2020/12/03 00:31:49;;;;;;;59.33;27.75;;;6.80;92.70;;;;;;5055451;28;20025;-77
2020/12/03 00:34:16;;;;;;;60.13;27.20;;;6.80;92.70;;;;;;5045391;28;20471;-77
2020/12/03 00:36:42;;;;;;;58.85;27.52;;;6.80;92.70;;;;;;5054070;28;20524;-77
2020/12/03 00:39:11;;;;;;;65.97;28.92;;;6.90;92.70;;;;;;5055317;28;20033;-77
2020/12/03 00:41:36;;;;;;;60.58;27.58;;;6.90;92.70;;;;;;5029407;28;20476;-76
2020/12/03 00:44:03;;;;;;;59.85;27.23;;;6.90;92.70;;;;;;5021246;28;20093;-77
2020/12/03 00:46:34;;;;;;;58.30;27.25;;;6.90;92.70;;;;;;5020747;28;20033;-77
2020/12/03 00:49:00;;;;;;;59.35;27.42;;;6.90;92.70;;;;;;5045638;28;20036;-77
2020/12/03 00:51:26;;;;;;;61.25;28.23;;;6.90;92.70;;;;;;5035300;28;20048;-77
2020/12/03 00:53:51;;;;;;;55.58;27.98;;;6.90;92.70;;;;;;5055047;28;20052;-77
2020/12/03 00:56:18;;;;;;;56.42;28.27;;;6.90;92.70;;;;;;5045429;28;20021;-77
2020/12/03 00:58:45;;;;;;;60.35;28.25;;;6.90;92.70;;;;;;5036381;28;20481;-77
2020/12/03 01:01:13;;;;;;;63.38;29.00;;;6.90;92.70;;;;;;5055253;28;20021;-77
2020/12/03 01:03:39;;;;;;;61.63;29.90;;;6.90;92.70;;;;;;5048602;28;20029;-77
2020/12/03 01:06:05;;;;;;;58.50;28.60;;;6.90;92.70;;;;;;5033795;28;20112;-77
2020/12/03 01:08:31;;;;;;;60.05;29.20;;;6.90;92.60;;;;;;5053992;28;20029;-77
2020/12/03 01:10:56;;;;;;;60.72;29.23;;;6.90;92.90;;;;;;5047121;28;20025;-77
2020/12/03 01:13:23;;;;;;;60.53;28.20;;;6.90;92.70;;;;;;5042422;28;20036;-77
2020/12/03 01:15:48;;;;;;;66.22;30.65;;;6.90;92.70;;;;;;5017431;28;20029;-77
2020/12/03 01:18:14;;;;;;;56.50;27.90;;;6.90;92.70;;;;;;5043676;28;20033;-77
2020/12/03 01:20:40;;;;;;;67.65;29.58;;;6.90;92.70;;;;;;5038343;28;20056;-77
2020/12/03 01:23:06;;;;;;;58.90;28.65;;;6.90;92.70;;;;;;5044432;28;20555;-77
2020/12/03 01:25:31;;;;;;;55.60;27.90;;;6.90;92.70;;;;;;5027792;28;20033;-77
2020/12/03 01:27:57;;;;;;;58.42;28.77;;;6.90;92.70;;;;;;5043828;28;20108;-77
2020/12/03 01:30:23;;;;;;;58.17;27.00;;;6.90;92.70;;;;;;5054237;28;20033;-77
2020/12/03 01:32:50;;;;;;;53.92;27.67;;;6.90;92.70;;;;;;5037087;28;20033;-77
2020/12/03 01:35:16;;;;;;;60.88;28.05;;;6.90;92.70;;;;;;5053863;28;20443;-77
2020/12/03 01:37:42;;;;;;;62.38;28.17;;;6.90;92.70;;;;;;5038049;28;20389;-77
2020/12/03 01:40:11;;;;;;;54.53;25.95;;;7.00;92.70;;;;;;5038102;28;20033;-77
2020/12/03 01:42:39;;;;;;;54.03;26.80;;;7.00;93.00;;;;;;5053794;28;20032;-77
2020/12/03 01:45:43;;;;;;;54.20;25.40;;;6.90;92.70;;;;;;5037227;28;20598;-77
2020/12/03 01:48:48;;;;;;;58.17;26.80;;;7.00;92.70;;;;;;5042533;28;20371;-77
2020/12/03 01:51:30;;;;;;;54.83;25.95;;;7.00;92.70;;;;;;4953468;28;20039;-77
2020/12/03 01:53:58;;;;;;;59.67;27.77;;;6.90;92.60;;;;;;4953346;29;20058;-77
2020/12/03 01:56:57;;;;;;;54.72;24.25;;;7.00;92.90;;;;;;5008303;28;20029;-77
2020/12/03 01:59:41;;;;;;;58.03;26.08;;;7.00;92.70;;;;;;5030468;28;20040;-77
2020/12/03 02:02:09;;;;;;;65.30;28.00;;;6.90;92.60;;;;;;5045739;28;20029;-77
2020/12/03 02:04:35;;;;;;;60.72;27.15;;;6.90;92.60;;;;;;5052419;28;20036;-77
2020/12/03 02:07:07;;;;;;;55.15;27.58;;;6.90;92.70;;;;;;5052709;28;20021;-77
2020/12/03 02:09:33;;;;;;;59.20;26.58;;;6.90;92.70;;;;;;5042661;28;20035;-77
2020/12/03 02:11:59;;;;;;;62.03;26.08;;;6.90;92.70;;;;;;5052559;28;20112;-77
2020/12/03 02:14:25;;;;;;;58.67;26.77;;;6.90;92.70;;;;;;5035975;28;20025;-83
2020/12/03 02:16:50;;;;;;;66.05;29.05;;;6.90;92.60;;;;;;5038368;28;20032;-83
2020/12/03 02:19:31;;;;;;;59.47;27.02;;;6.90;92.70;;;;;;5053668;28;20017;-83
2020/12/03 02:22:01;;;;;;;63.00;28.27;;;6.90;92.70;;;;;;5053771;28;20056;-83
2020/12/03 02:24:33;;;;;;;66.00;30.15;;;6.90;92.60;;;;;;5053429;28;20025;-82
2020/12/03 02:26:59;;;;;;;63.15;29.00;;;6.80;92.60;;;;;;5042407;28;20539;-83
2020/12/03 02:29:26;;;;;;;61.00;29.15;;;6.90;92.60;;;;;;5043518;28;20090;-83
2020/12/03 02:31:52;;;;;;;62.40;28.98;;;6.90;92.60;;;;;;5053186;28;20037;-83
2020/12/03 02:34:18;;;;;;;62.05;28.98;;;6.90;92.60;;;;;;5053059;28;20033;-82
2020/12/03 02:36:49;;;;;;;61.58;27.85;;;6.90;92.60;;;;;;5036564;28;20393;-83
2020/12/03 02:39:14;;;;;;;63.25;28.83;;;6.90;92.60;;;;;;5038011;28;20377;-82
2020/12/03 02:41:40;;;;;;;62.00;29.88;;;6.90;92.60;;;;;;5021824;28;20029;-83
2020/12/03 02:44:05;;;;;;;56.88;28.02;;;6.80;92.60;;;;;;5042625;28;20029;-83
2020/12/03 02:46:31;;;;;;;60.67;28.88;;;6.80;92.60;;;;;;5052767;28;20029;-83
2020/12/03 02:48:57;;;;;;;61.08;28.90;;;6.80;92.60;;;;;;5035333;28;20040;-83
2020/12/03 02:51:22;;;;;;;69.85;29.60;;;6.80;92.60;;;;;;5050790;28;20044;-82
2020/12/03 02:53:48;;;;;;;60.53;28.50;;;6.80;92.60;;;;;;5042140;28;20032;-83
2020/12/03 02:56:14;;;;;;;62.75;30.23;;;6.70;92.60;;;;;;5052888;28;20108;-83
2020/12/03 02:58:40;;;;;;;59.22;28.02;;;6.70;92.60;;;;;;5052743;28;20040;-83
2020/12/03 03:01:05;;;;;;;57.63;27.45;;;6.70;92.60;;;;;;5044281;28;20029;-83
2020/12/03 03:03:31;;;;;;;62.05;27.40;;;6.70;92.70;;;;;;5027761;28;20033;-82
2020/12/03 03:05:57;;;;;;;60.47;27.00;;;6.70;92.70;;;;;;5052088;28;20029;-83
2020/12/03 03:08:23;;;;;;;59.38;27.70;;;6.70;92.70;;;;;;5018870;28;20115;-83
2020/12/03 03:10:49;;;;;;;66.53;28.75;;;6.70;92.70;;;;;;5035047;28;20041;-82
2020/12/03 03:13:14;;;;;;;58.97;28.05;;;6.60;92.60;;;;;;5052533;28;20025;-82
2020/12/03 03:15:40;;;;;;;60.50;27.25;;;6.60;92.60;;;;;;5023196;28;20127;-83
2020/12/03 03:18:06;;;;;;;60.65;27.20;;;6.60;92.70;;;;;;5035264;28;20029;-82
2020/12/03 03:20:31;;;;;;;64.00;28.05;;;6.60;92.70;;;;;;5039188;28;20029;-83
2020/12/03 03:22:57;;;;;;;56.78;26.83;;;6.60;92.70;;;;;;5047078;28;20109;-82
2020/12/03 03:25:23;;;;;;;58.95;27.13;;;6.60;92.70;;;;;;5032415;28;20032;-83
2020/12/03 03:27:48;;;;;;;56.63;26.58;;;6.60;92.70;;;;;;5038103;28;20044;-83
2020/12/03 03:30:20;;;;;;;60.30;27.25;;;6.60;92.60;;;;;;5018800;28;20191;-83
2020/12/03 03:32:46;;;;;;;59.33;26.38;;;6.60;92.60;;;;;;5049579;28;20401;-83
2020/12/03 03:35:16;;;;;;;54.85;25.52;;;6.60;92.60;;;;;;5055181;28;20053;-83
2020/12/03 03:37:42;;;;;;;58.85;25.95;;;6.60;92.70;;;;;;5056294;28;20628;-82
2020/12/03 03:40:08;;;;;;;59.63;26.27;;;6.60;92.60;;;;;;5046303;28;20039;-82
2020/12/03 03:42:33;;;;;;;62.28;26.60;;;6.60;92.60;;;;;;5056143;28;20060;-82
2020/12/03 03:45:00;;;;;;;51.58;24.83;;;6.60;92.60;;;;;;5028480;28;20055;-83
2020/12/03 03:47:26;;;;;;;60.53;25.35;;;6.60;92.60;;;;;;5051423;28;20036;-82
2020/12/03 03:49:51;;;;;;;61.05;24.75;;;6.60;92.60;;;;;;5056388;28;20025;-82
2020/12/03 03:52:18;;;;;;;56.97;25.13;;;6.60;92.60;;;;;;5045994;28;20056;-83
2020/12/03 03:54:43;;;;;;;60.75;24.95;;;6.60;92.60;;;;;;5042051;28;20474;-82
2020/12/03 03:57:09;;;;;;;54.55;25.27;;;6.60;92.60;;;;;;5022072;28;20124;-82
2020/12/03 03:59:35;;;;;;;60.75;24.88;;;6.60;92.60;;;;;;5013504;28;20116;-82
2020/12/03 04:02:01;;;;;;;54.08;25.05;;;6.60;92.80;;;;;;5031032;28;20033;-82
2020/12/03 04:04:27;;;;;;;54.75;24.33;;;6.60;92.50;;;;;;5038984;28;20070;-83
2020/12/03 04:06:52;;;;;;;52.53;23.27;;;6.60;92.60;;;;;;5042342;28;20398;-83
2020/12/03 04:09:18;;;;;;;55.80;23.05;;;6.60;92.60;;;;;;5038103;28;20033;-82
2020/12/03 04:11:44;;;;;;;56.55;23.98;;;6.60;92.60;;;;;;5046105;28;20037;-83
2020/12/03 04:14:10;;;;;;;55.60;23.63;;;6.70;92.60;;;;;;5045780;28;20036;-82
2020/12/03 04:16:36;;;;;;;54.05;22.98;;;6.70;92.50;;;;;;5045996;28;20017;-83
2020/12/03 04:19:02;;;;;;;52.70;23.33;;;6.60;92.50;;;;;;5050926;28;20033;-83
2020/12/03 04:21:28;;;;;;;57.15;24.48;;;6.60;92.50;;;;;;5055662;28;20017;-83
2020/12/03 04:23:53;;;;;;;55.47;22.63;;;6.70;92.80;;;;;;5055714;28;20478;-77
2020/12/03 04:26:19;;;;;;;46.53;21.52;;;6.70;92.60;;;;;;5037018;28;20025;-77
2020/12/03 04:28:44;;;;;;;49.13;21.45;;;6.60;92.50;;;;;;5038040;28;20025;-77
2020/12/03 04:31:10;;;;;;;47.40;20.70;;;6.60;92.60;;;;;;5045698;28;20438;-77
2020/12/03 04:33:36;;;;;;;44.67;20.15;;;6.60;92.60;;;;;;5020141;28;20036;-77
2020/12/03 04:36:02;;;;;;;46.33;20.15;;;6.60;92.60;;;;;;5044985;28;20428;-77
2020/12/03 04:38:28;;;;;;;40.05;19.40;;;6.60;92.60;;;;;;5055200;28;20473;-77
2020/12/03 04:40:55;;;;;;;46.97;19.70;;;6.60;92.60;;;;;;5021021;28;20031;-77
2020/12/03 04:43:40;;;;;;;46.72;20.58;;;6.70;92.60;;;;;;5055048;28;20456;-77
2020/12/03 04:46:30;;;;;;;44.92;20.15;;;6.70;92.60;;;;;;5041823;28;20025;-77
2020/12/03 04:49:07;;;;;;;38.92;19.00;;;6.70;92.60;;;;;;5037395;28;20021;-77
2020/12/03 04:51:41;;;;;;;38.13;18.35;;;6.70;92.60;;;;;;5045236;28;20082;-77
2020/12/03 04:54:33;;;;;;;43.30;18.83;;;6.70;92.60;;;;;;5055200;28;20017;-77
2020/12/03 04:57:24;;;;;;;36.80;18.38;;;6.70;92.70;;;;;;5023377;28;20021;-77
2020/12/03 05:00:25;;;;;;;45.35;20.08;;;6.60;92.60;;;;;;5020046;28;20535;-77
2020/12/03 05:03:13;;;;;;;42.40;19.23;;;6.70;92.70;;;;;;5041261;28;20040;-77
2020/12/03 05:05:51;;;;;;;41.50;18.50;;;6.70;92.60;;;;;;5054573;28;20025;-76
2020/12/03 05:08:28;;;;;;;42.42;18.85;;;6.70;92.60;;;;;;5040763;28;20037;-78
2020/12/03 05:10:54;;;;;;;35.28;16.95;;;6.70;92.60;;;;;;5017161;28;20033;-77
2020/12/03 05:13:34;;;;;;;37.35;16.63;;;6.70;92.60;;;;;;5051410;28;20033;-83
2020/12/03 05:16:17;;;;;;;38.10;17.17;;;6.70;92.60;;;;;;5038375;28;20393;-83
2020/12/03 05:18:56;;;;;;;36.15;16.02;;;6.70;92.50;;;;;;5053342;28;20024;-83
2020/12/03 05:21:26;;;;;;;;;;;6.70;92.50;;;;;;5049930;28;20116;-83
2020/12/03 05:23:52;;;;;;;31.67;15.15;;;6.60;92.40;;;;;;5054547;28;19991;-83
2020/12/03 05:26:23;;;;;;;30.63;15.30;;;6.60;92.40;;;;;;5044954;28;20175;-83
2020/12/03 05:28:52;;;;;;;37.38;16.33;;;6.60;92.40;;;;;;5036471;28;20032;-83
2020/12/03 05:31:21;;;;;;;37.35;16.42;;;6.60;92.40;;;;;;5053939;28;20040;-83
2020/12/03 05:33:47;;;;;;;27.13;14.32;;;6.70;92.50;;;;;;5053739;28;20044;-82
2020/12/03 05:36:34;;;;;;;31.00;15.35;;;6.60;92.40;;;;;;5042308;28;20060;-83
2020/12/03 05:39:02;;;;;;;27.45;14.20;;;6.60;92.50;;;;;;5054051;28;20025;-82
2020/12/03 05:41:32;;;;;;;29.50;15.10;;;6.60;92.50;;;;;;5054279;28;20039;-83
2020/12/03 05:43:57;;;;;;;31.27;14.32;;;6.60;92.40;;;;;;5016400;28;20112;-83
2020/12/03 05:46:24;;;;;;;29.75;14.48;;;6.60;92.40;;;;;;5023407;28;20115;-83
2020/12/03 05:49:04;;;;;;;30.05;13.82;;;6.60;92.30;;;;;;5044046;28;20126;-83
2020/12/03 05:51:34;;;;;;;27.58;13.98;;;6.60;92.40;;;;;;5039529;28;20047;-83
2020/12/03 05:54:07;;;;;;;28.70;13.98;;;6.60;92.30;;;;;;5026758;28;20031;-83
2020/12/03 05:56:32;;;;;;;28.60;13.98;;;6.60;92.30;;;;;;5043841;28;20473;-83
2020/12/03 05:59:21;;;;;;;25.80;13.27;;;6.60;92.30;;;;;;5053485;28;20044;-82
2020/12/03 06:02:23;;;;;;;23.90;12.07;;;6.60;92.30;;;;;;5050195;28;20104;-83
2020/12/03 06:05:02;;;;;;;29.63;13.88;;;6.60;92.30;;;;;;5035571;28;20475;-83
2020/12/03 06:07:49;;;;;;;28.13;13.63;;;6.60;92.30;;;;;;5040657;28;20610;-83
2020/12/03 06:10:28;;;;;;;25.38;11.75;;;6.60;92.30;;;;;;5037375;28;20759;-83
2020/12/03 06:13:16;;;;;;;23.65;11.93;;;6.60;92.30;;;;;;5035740;28;20405;-83
2020/12/03 06:16:01;;;;;;;25.55;13.13;;;6.60;92.30;;;;;;5043847;28;20115;-81
2020/12/03 06:18:45;;;;;;;26.90;12.25;;;6.60;92.30;;;;;;5039161;28;20552;-82
2020/12/03 06:21:30;;;;;;;21.58;11.40;;;6.70;92.30;;;;;;5045044;28;20021;-82
2020/12/03 06:24:02;;;;;;;24.40;12.35;;;6.60;92.30;;;;;;5031454;28;20025;-82
2020/12/03 06:27:05;;;;;;;23.75;11.90;;;6.70;92.10;;;;;;5043561;28;20525;-82
2020/12/03 06:29:47;;;;;;;23.40;11.65;;;6.70;92.10;;;;;;5052081;28;20021;-82
2020/12/03 06:32:40;;;;;;;20.20;11.13;;;6.70;92.00;;;;;;5038835;28;20033;-81
2020/12/03 06:35:20;;;;;;;20.77;11.73;;;6.70;92.00;;;;;;5052908;28;20045;-82
2020/12/03 06:38:04;;;;;;;21.58;11.93;;;6.70;92.00;;;;;;5047071;28;20021;-81
2020/12/03 06:40:35;;;;;;;20.27;11.43;;;6.70;92.00;;;;;;5039328;28;20025;-82
2020/12/03 06:43:42;;;;;;;20.73;11.07;;;6.70;91.90;;;;;;5053077;28;20028;-81
2020/12/03 06:46:26;;;;;;;20.58;11.82;;;6.70;92.30;;;;;;5035375;28;20123;-82
2020/12/03 06:49:04;;;;;;;17.40;10.15;;;6.70;91.90;;;;;;5053101;28;20021;-81
2020/12/03 06:52:00;;;;;;;21.10;10.95;;;6.70;92.00;;;;;;5021488;28;20032;-82
2020/12/03 06:54:45;;;;;;;20.27;9.98;;;6.70;92.00;;;;;;5052977;28;20047;-82
2020/12/03 06:57:48;;;;;;;19.42;10.52;;;6.70;91.90;;;;;;5053067;28;20473;-82
2020/12/03 07:00:39;;;;;;;16.60;10.52;;;6.70;91.90;;;;;;5052913;28;20036;-82
2020/12/03 07:03:27;;;;;;;22.67;10.48;;;6.70;91.90;;;;;;5043292;28;20033;-81
2020/12/03 07:06:23;;;;;;;18.10;9.75;;;6.70;91.80;;;;;;5038874;28;20021;-82
2020/12/03 07:09:25;;;;;;;17.27;9.70;;;6.60;91.80;;;;;;5051814;28;20033;-82
2020/12/03 07:12:10;;;;;;;16.92;10.27;;;6.60;91.90;;;;;;5038385;28;20040;-82
2020/12/03 07:15:32;;;;;;;21.98;9.93;;;6.70;91.80;;;;;;5053098;28;20470;-82
2020/12/03 07:18:01;;;;;;;22.27;10.55;;;6.60;91.80;;;;;;4936965;29;20024;-83
2020/12/03 07:21:03;;;;;;;15.93;10.20;;;6.60;91.80;;;;;;4937537;29;20034;-81
2020/12/03 07:23:33;;;;;;;16.73;10.13;;;6.60;91.80;;;;;;5018660;28;20051;-81
2020/12/03 07:26:05;;;;;;;20.48;10.77;;;6.60;91.70;;;;;;5052809;28;20021;-81
2020/12/03 07:28:37;;;;;;;18.00;10.48;;;6.60;91.70;;;;;;5035776;28;20029;-80
2020/12/03 07:31:13;;;;;;;19.30;10.70;;;6.60;91.60;;;;;;5052818;28;20029;-81
2020/12/03 07:33:58;;;;;;;19.35;10.52;;;6.60;91.60;;;;;;5052484;28;20029;-80
2020/12/03 07:37:02;;;;;;;17.90;10.45;;;6.70;91.70;;;;;;5036872;28;20045;-80
2020/12/03 07:39:32;;;;;;;16.15;9.55;;;6.60;91.60;;;;;;5052694;28;20025;-80
2020/12/03 07:42:11;;;;;;;19.52;10.95;;;6.60;91.60;;;;;;5043509;28;20045;-80
2020/12/03 07:44:50;;;;;;;;;;;6.70;91.60;;;;;;5050754;28;20025;-80
2020/12/03 07:47:19;;;;;;;17.88;10.93;;;6.70;91.50;;;;;;5052619;28;19905;-80
2020/12/03 07:49:47;;;;;;;20.83;11.00;;;6.60;91.60;;;;;;5052559;28;20037;-80
2020/12/03 07:52:45;;;;;;;20.27;11.93;;;6.60;91.50;;;;;;5034815;28;20037;-81
2020/12/03 07:55:20;;;;;;;16.17;10.20;;;6.60;91.50;;;;;;5026576;28;20061;-81
2020/12/03 07:57:58;;;;;;;18.42;10.57;;;6.60;91.50;;;;;;5050723;28;20025;-80
2020/12/03 08:00:26;;;;;;;21.77;11.75;;;6.60;91.50;;;;;;5052361;28;20025;-81
2020/12/03 08:02:59;;;;;;;20.02;11.35;;;6.60;91.30;;;;;;5042655;28;20390;-80
2020/12/03 08:05:39;;;;;;;17.92;11.52;;;6.60;91.30;;;;;;5052257;28;20033;-81
2020/12/03 08:08:23;;;;;;;15.45;10.15;;;6.60;91.30;;;;;;5055578;28;20025;-81
2020/12/03 08:10:50;;;;;;;19.02;10.80;;;6.60;91.30;;;;;;5055601;28;20098;-81
2020/12/03 08:13:42;;;;;;;18.48;10.48;;;6.60;91.30;;;;;;5042619;28;20057;-81
2020/12/03 08:16:30;;;;;;;19.05;10.90;;;6.60;91.40;;;;;;5055372;28;20021;-81
2020/12/03 08:19:20;;;;;;;23.70;11.48;;;6.60;91.30;;;;;;5055214;28;20021;-81
2020/12/03 08:21:46;;;;;;;20.13;11.15;;;6.60;91.30;;;;;;5044832;28;20024;-80
2020/12/03 08:24:25;;;;;;;21.05;10.23;;;6.60;91.30;;;;;;5047641;28;20124;-80
2020/12/03 08:27:17;;;;;;;;;;;6.60;91.40;;;;;;5018466;28;20109;-81
2020/12/03 08:29:43;;;;;;;17.02;11.02;;;6.60;91.30;;;;;;5053194;28;20362;-81
2020/12/03 08:32:08;;;;;;;17.38;11.85;;;6.60;91.40;;;;;;5038664;28;20029;-81
2020/12/03 08:34:41;;;;;;;25.45;12.82;;;6.60;91.40;;;;;;5041964;28;20094;-80
2020/12/03 08:37:17;;;;;;;16.63;10.77;;;6.60;91.30;;;;;;5029963;28;20039;-82
2020/12/03 08:39:50;;;;;;;18.20;11.25;;;6.60;91.40;;;;;;5017634;28;20018;-82
2020/12/03 08:42:16;;;;;;;18.55;10.98;;;6.70;91.50;;;;;;5041377;28;20036;-81
2020/12/03 08:44:42;;;;;;;17.88;10.77;;;6.70;91.40;;;;;;5031215;28;20037;-81
2020/12/03 08:47:14;;;;;;;20.38;11.52;;;6.70;91.40;;;;;;5021074;28;20041;-82
2020/12/03 08:49:42;;;;;;;19.63;11.02;;;6.80;91.30;;;;;;5055247;28;20021;-82
2020/12/03 08:52:07;;;;;;;18.15;11.38;;;6.80;91.30;;;;;;5033460;28;20029;-82
2020/12/03 08:54:33;;;;;;;23.33;11.88;;;6.80;91.20;;;;;;5017500;28;20033;-82
2020/12/03 08:57:08;;;;;;;17.35;11.07;;;6.80;91.20;;;;;;5038737;28;20017;-82
2020/12/03 08:59:36;;;;;;;15.55;10.77;;;6.90;91.10;;;;;;5047982;28;20029;-82
2020/12/03 09:02:10;;;;;;;16.70;10.70;;;6.90;91.00;;;;;;5020609;28;20036;-82
2020/12/03 09:04:42;;;;;;;17.48;10.55;;;6.80;91.00;;;;;;5020901;28;20033;-82
2020/12/03 09:07:12;;;;;;;18.38;10.85;;;6.80;91.00;;;;;;5036990;28;20478;-82
2020/12/03 09:09:42;;;;;;;14.57;9.95;;;6.90;90.90;;;;;;5042949;28;20053;-83
2020/12/03 09:12:09;;;;;;;21.23;11.90;;;6.90;90.90;;;;;;5039387;28;20253;-82
2020/12/03 09:14:37;;;;;;;16.92;10.63;;;6.90;90.90;;;;;;5023695;28;20076;-82
2020/12/03 09:17:07;;;;;;;15.48;9.23;;;6.90;90.80;;;;;;5047963;28;20380;-82
2020/12/03 09:19:33;;;;;;;15.68;9.85;;;6.90;90.80;;;;;;5036434;28;20399;-82
2020/12/03 09:21:59;;;;;;;16.27;9.57;;;6.90;90.80;;;;;;5054679;28;20075;-82
2020/12/03 09:24:26;;;;;;;17.13;10.38;;;6.90;90.80;;;;;;5020548;28;20025;-83
2020/12/03 09:26:54;;;;;;;13.88;8.93;;;6.90;90.80;;;;;;5049192;28;20025;-83
2020/12/03 09:29:20;;;;;;;17.87;9.27;;;6.90;90.80;;;;;;5053398;28;20454;-84
2020/12/03 09:31:50;;;;;;;14.10;9.65;;;6.90;90.70;;;;;;5022357;28;20091;-83
2020/12/03 09:34:16;;;;;;;17.90;9.15;;;6.90;90.70;;;;;;5042290;28;20025;-83
2020/12/03 09:36:41;;;;;;;13.70;9.63;;;6.90;90.70;;;;;;5053673;28;20467;-84
2020/12/03 09:39:09;;;;;;;16.05;9.40;;;7.00;90.70;;;;;;5033758;28;20070;-81
2020/12/03 09:41:36;;;;;;;16.40;10.30;;;7.00;90.60;;;;;;5036793;28;20110;-83
2020/12/03 09:44:07;;;;;;;14.52;9.55;;;7.00;90.40;;;;;;5036353;28;20029;-82
2020/12/03 09:46:38;;;;;;;13.68;9.05;;;6.90;90.40;;;;;;5051975;28;20497;-82
2020/12/03 09:49:04;;;;;;;16.20;8.27;;;6.80;90.40;;;;;;5044499;28;20025;-81
2020/12/03 09:51:33;;;;;;;16.40;9.23;;;6.80;90.50;;;;;;5054361;28;20029;-82
2020/12/03 09:54:01;;;;;;;14.77;9.65;;;6.80;90.60;;;;;;5053454;28;20108;-82
2020/12/03 09:56:27;;;;;;;14.07;8.40;;;6.80;90.60;;;;;;5036027;28;20025;-82
2020/12/03 09:58:59;;;;;;;15.57;8.63;;;6.80;90.60;;;;;;5036253;28;20093;-82
2020/12/03 10:01:37;;;;;;;13.75;8.30;;;6.80;90.70;;;;;;5035942;28;20555;-81
2020/12/03 10:04:09;;;;;;;15.13;7.80;;;6.80;91.00;;;;;;5043777;28;20029;-82
2020/12/03 10:06:55;;;;;;;14.60;8.95;;;6.80;90.70;;;;;;5044310;28;20037;-82
2020/12/03 10:09:46;;;;;;;13.57;8.43;;;6.80;90.70;;;;;;5053787;28;20111;-82
2020/12/03 10:12:29;;;;;;;11.85;8.13;;;6.80;90.70;;;;;;5022327;28;20041;-81
2020/12/03 10:15:25;;;;;;;12.18;7.55;;;6.80;90.60;;;;;;5050898;28;20017;-81
2020/12/03 10:17:50;;;;;;;10.77;7.63;;;6.90;90.60;;;;;;5053642;28;20381;-82
2020/12/03 10:20:18;;;;;;;11.48;7.88;;;6.90;90.50;;;;;;5052362;28;20013;-82
2020/12/03 10:23:09;;;;;;;16.58;9.13;;;6.90;90.50;;;;;;5043143;28;20624;-82
2020/12/03 10:25:40;;;;;;;18.42;8.50;;;6.90;90.50;;;;;;5053312;28;20036;-81
2020/12/03 10:28:20;;;;;;;13.48;8.02;;;6.80;90.50;;;;;;5043729;28;20025;-82
2020/12/03 10:30:46;;;;;;;14.00;7.75;;;6.90;90.60;;;;;;5052503;28;20035;-81
2020/12/03 10:33:18;;;;;;;14.48;7.95;;;6.90;90.60;;;;;;5029661;28;20064;-82
2020/12/03 10:35:46;;;;;;;13.57;7.50;;;6.90;90.40;;;;;;5036417;28;20047;-81
2020/12/03 10:38:35;;;;;;;15.03;8.33;;;6.90;90.30;;;;;;5043572;28;20106;-82
2020/12/03 10:41:02;;;;;;;11.00;7.40;;;6.90;90.30;;;;;;5019111;28;20375;-82
2020/12/03 10:43:34;;;;;;;10.60;7.18;;;6.90;90.30;;;;;;5053158;28;20059;-82
2020/12/03 10:46:04;;;;;;;14.10;6.90;;;7.00;90.30;;;;;;5044452;28;20029;-82
2020/12/03 10:48:34;;;;;;;11.30;7.25;;;7.00;90.30;;;;;;5047829;28;20111;-81
2020/12/03 10:51:09;;;;;;;11.32;6.60;;;7.00;90.20;;;;;;5035309;28;20392;-81
2020/12/03 10:53:37;;;;;;;9.73;6.70;;;7.00;90.20;;;;;;5037547;28;20102;-81
2020/12/03 10:56:05;;;;;;;10.02;7.03;;;7.10;90.10;;;;;;5036817;28;20017;-82
2020/12/03 10:59:02;;;;;;;12.20;7.15;;;7.10;90.00;;;;;;5045128;28;20112;-82
2020/12/03 11:01:31;;;;;;;11.25;5.85;;;7.20;90.00;;;;;;5052791;28;20029;-78
2020/12/03 11:04:03;;;;;;;8.85;5.82;;;7.20;89.90;;;;;;5052722;28;20017;-77
2020/12/03 11:06:29;;;;;;;12.35;6.68;;;7.30;89.70;;;;;;5043132;28;20029;-77
2020/12/03 11:08:59;;;;;;;11.98;6.60;;;7.30;89.30;;;;;;5052891;28;20108;-78
2020/12/03 11:11:37;;;;;;;10.32;6.43;;;7.30;89.10;;;;;;5042968;28;20515;-77
2020/12/03 11:14:13;;;;;;;8.57;5.38;;;7.30;88.80;;;;;;5051755;28;20074;-78
2020/12/03 11:16:45;;;;;;;9.32;5.95;;;7.30;88.90;;;;;;5052930;28;20385;-77
2020/12/03 11:19:16;;;;;;;11.38;5.88;;;7.40;88.80;;;;;;5043589;28;20025;-78
2020/12/03 11:21:53;;;;;;;8.88;6.07;;;7.30;88.50;;;;;;5052952;28;20021;-78
2020/12/03 11:24:42;;;;;;;7.40;5.40;;;7.30;88.60;;;;;;5052623;28;20033;-77
2020/12/03 11:27:09;;;;;;;10.15;5.68;;;7.30;88.60;;;;;;5052671;28;20025;-78
2020/12/03 11:29:36;;;;;;;9.00;5.28;;;7.30;88.50;;;;;;5049923;28;20507;-78
2020/12/03 11:32:02;;;;;;;7.68;4.88;;;7.30;88.50;;;;;;5010476;28;20592;-78
2020/12/03 11:34:35;;;;;;;10.20;4.93;;;7.30;88.40;;;;;;5051164;28;20061;-78
2020/12/03 11:37:01;;;;;;;9.85;5.28;;;7.30;88.50;;;;;;5018287;28;20064;-78
2020/12/03 11:39:28;;;;;;;7.53;4.80;;;7.40;87.80;;;;;;5049067;28;20029;-78
2020/12/03 11:42:17;;;;;;;7.72;4.57;;;7.30;88.00;;;;;;5036520;28;20103;-78
2020/12/03 11:50:18;;;;;;;9.32;5.05;;;7.30;88.00;;;;;;5000864;28;20069;-77
2020/12/03 11:52:44;;;;;;;10.70;4.60;;;7.40;87.80;;;;;;5056260;28;20037;-77
2020/12/03 11:55:37;;;;;;;9.45;4.75;;;7.40;87.90;;;;;;5056207;28;20032;-78
2020/12/03 11:58:04;;;;;;;6.90;4.05;;;7.40;88.00;;;;;;5043635;28;20037;-78
2020/12/03 12:00:31;;;;;;;8.98;3.97;;;7.40;87.80;;;;;;5050652;28;20029;-78
2020/12/03 12:02:57;;;;;;;6.03;3.60;;;7.50;87.70;;;;;;5038443;28;20639;-77
2020/12/03 12:10:36;;;;;;;4.68;2.97;;;7.50;86.90;;;;;;5056084;28;20473;-78
2020/12/03 12:13:02;;;;;;;8.35;3.60;;;7.50;86.80;;;;;;5054485;28;20021;-78
2020/12/03 12:15:28;;;;;;;6.13;3.22;;;7.50;86.80;;;;;;5046610;28;20044;-78
2020/12/03 12:17:53;;;;;;;5.50;3.58;;;7.50;87.00;;;;;;5046100;28;20394;-77
2020/12/03 12:20:20;;;;;;;6.05;3.55;;;7.50;87.00;;;;;;5038019;28;20033;-78
2020/12/03 12:22:46;;;;;;;5.15;3.00;;;7.50;87.30;;;;;;5055839;28;20021;-78
2020/12/03 12:25:11;;;;;;;6.28;3.13;;;7.50;86.60;;;;;;5021180;28;20048;-78
2020/12/03 12:27:37;;;;;;;4.53;3.10;;;7.40;86.90;;;;;;5046096;28;20112;-78
2020/12/03 12:30:04;;;;;;;6.93;3.20;;;7.40;86.80;;;;;;5029190;28;20025;-78
2020/12/03 12:32:29;;;;;;;4.88;3.45;;;7.40;86.70;;;;;;5055508;28;20084;-78
2020/12/03 12:34:55;;;;;;;5.13;3.45;;;7.40;86.80;;;;;;5050093;28;20563;-78
2020/12/03 12:37:20;;;;;;;6.10;3.33;;;7.40;87.00;;;;;;5055114;28;20052;-78
2020/12/03 12:39:46;;;;;;;5.15;2.83;;;7.40;87.00;;;;;;5037929;28;20036;-78
2020/12/03 12:42:12;;;;;;;5.50;2.72;;;7.40;87.00;;;;;;5037422;28;20398;-77
2020/12/03 12:44:38;;;;;;;6.10;3.15;;;7.40;86.80;;;;;;5016944;28;20569;-78
2020/12/03 12:47:05;;;;;;;6.57;3.30;;;7.40;87.00;;;;;;5049563;28;20029;-78
2020/12/03 12:49:31;;;;;;;7.65;3.42;;;7.40;87.10;;;;;;5053987;28;20142;-84
2020/12/03 12:51:57;;;;;;;4.20;3.13;;;7.40;86.90;;;;;;5048912;28;20543;-85
2020/12/03 12:54:24;;;;;;;6.03;2.70;;;7.40;87.00;;;;;;5054450;28;20028;-84
2020/12/03 12:56:51;;;;;;;4.30;2.85;;;7.40;86.90;;;;;;5022487;28;20021;-85
2020/12/03 12:59:17;;;;;;;4.00;2.58;;;7.40;86.80;;;;;;5017227;28;20074;-85
2020/12/03 13:01:44;;;;;;;4.43;2.70;;;7.40;86.90;;;;;;5052518;28;20037;-84
2020/12/03 13:04:11;;;;;;;6.15;3.05;;;7.40;86.70;;;;;;5052386;28;20086;-85
2020/12/03 13:06:36;;;;;;;6.03;2.60;;;7.40;86.90;;;;;;5021138;28;20025;-84
2020/12/03 13:09:02;;;;;;;3.88;2.80;;;7.40;86.90;;;;;;5021471;28;20025;-85
2020/12/03 13:11:27;;;;;;;2.63;2.20;;;7.40;87.20;;;;;;5054124;28;20036;-84
2020/12/03 13:13:53;;;;;;;3.88;2.20;;;7.40;87.20;;;;;;5038332;28;20061;-85
2020/12/03 13:16:19;;;;;;;4.07;2.30;;;7.40;87.40;;;;;;5020912;28;20120;-85
2020/12/03 13:18:44;;;;;;;2.63;1.90;;;7.30;87.20;;;;;;5020798;28;20032;-84
2020/12/03 13:21:10;;;;;;;2.60;2.17;;;7.40;87.50;;;;;;5020623;28;20029;-84